createdAt,value
2023-02-21T00:00:14.896Z,26.58
2023-02-21T00:03:03.418Z,20.08
2023-02-21T00:05:48.906Z,22.95
2023-02-21T00:08:34.197Z,23.55
2023-02-21T00:11:19.493Z,22.83
2023-02-21T00:14:04.922Z,20.92
2023-02-21T00:16:54.360Z,22.05
2023-02-21T00:19:44.302Z,22.55
2023-02-21T00:22:29.595Z,19.38
2023-02-21T00:25:18.276Z,23.73
2023-02-21T00:28:06.837Z,23.88
2023-02-21T00:30:52.089Z,23.00
2023-02-21T00:33:39.594Z,22.17
2023-02-21T00:36:25.217Z,22.33
2023-02-21T00:39:10.353Z,23.42
2023-02-21T00:42:00.449Z,21.45
2023-02-21T00:44:45.490Z,20.35
2023-02-21T00:47:30.817Z,21.48
2023-02-21T00:50:15.924Z,23.20
2023-02-21T00:53:03.913Z,20.85
2023-02-21T00:55:52.699Z,23.38
2023-02-21T00:58:40.879Z,23.13
2023-02-21T01:01:26.392Z,20.85
2023-02-21T01:04:16.023Z,20.35
2023-02-21T01:07:01.864Z,19.95
2023-02-21T01:09:47.014Z,23.08
2023-02-21T01:12:37.290Z,18.85
2023-02-21T01:15:32.611Z,19.92
2023-02-21T01:18:17.798Z,19.70
2023-02-21T01:21:04.889Z,22.85
2023-02-21T01:23:53.448Z,22.08
2023-02-21T01:26:38.667Z,18.55
2023-02-21T01:29:24.303Z,19.23
2023-02-21T01:32:11.853Z,21.13
2023-02-21T01:34:59.665Z,20.58
2023-02-21T01:37:47.461Z,20.63
2023-02-21T01:40:35.170Z,18.05
2023-02-21T01:43:20.715Z,20.45
2023-02-21T01:46:08.551Z,20.63
2023-02-21T01:48:55.245Z,22.67
2023-02-21T01:51:51.740Z,20.67
2023-02-21T01:54:50.246Z,18.15
2023-02-21T01:57:36.474Z,20.15
2023-02-21T02:00:25.146Z,20.02
2023-02-21T02:03:28.050Z,20.98
2023-02-21T02:06:25.169Z,18.77
2023-02-21T02:09:13.138Z,19.25
2023-02-21T02:12:23.215Z,20.73
2023-02-21T02:15:17.057Z,22.50
2023-02-21T02:18:05.643Z,22.83
2023-02-21T02:20:53.090Z,22.17
2023-02-21T02:23:56.973Z,21.58
2023-02-21T02:26:51.078Z,24.83
2023-02-21T02:29:50.892Z,26.42
2023-02-21T02:33:04.459Z,25.58
2023-02-21T02:35:51.920Z,24.38
2023-02-21T02:38:33.630Z,29.50
2023-02-21T02:41:38.599Z,25.87
2023-02-21T02:44:18.174Z,24.38
2023-02-21T02:46:48.428Z,30.40
2023-02-21T02:49:27.552Z,28.55
2023-02-21T02:52:04.526Z,30.27
2023-02-21T02:54:34.534Z,30.65
2023-02-21T02:57:10.365Z,31.13
2023-02-21T02:59:44.569Z,30.60
2023-02-21T03:02:26.019Z,30.70
2023-02-21T03:05:04.531Z,34.10
2023-02-21T03:07:50.810Z,35.60
2023-02-21T03:10:39.239Z,33.85
2023-02-21T03:13:42.998Z,35.00
2023-02-21T03:16:20.355Z,37.45
2023-02-21T03:18:51.905Z,35.28
2023-02-21T03:21:26.796Z,34.35
2023-02-21T03:24:00.120Z,35.08
2023-02-21T03:26:34.455Z,33.70
2023-02-21T03:29:16.272Z,33.63
2023-02-21T03:32:00.239Z,34.00
2023-02-21T03:34:29.870Z,30.45
2023-02-21T03:36:56.538Z,29.85
2023-02-21T03:39:23.106Z,35.58
2023-02-21T03:41:49.737Z,30.05
2023-02-21T03:44:18.030Z,28.92
2023-02-21T03:46:53.185Z,30.98
2023-02-21T03:49:22.403Z,27.17
2023-02-21T03:51:51.692Z,29.65
2023-02-21T03:54:22.850Z,31.65
2023-02-21T03:56:53.750Z,29.73
2023-02-21T03:59:26.456Z,31.50
2023-02-21T04:01:53.653Z,26.13
2023-02-21T04:04:24.062Z,29.10
2023-02-21T04:07:00.590Z,30.92
2023-02-21T04:09:27.461Z,26.73
2023-02-21T04:11:54.444Z,28.33
2023-02-21T04:14:22.668Z,26.75
2023-02-21T04:16:49.578Z,28.63
2023-02-21T04:19:16.168Z,27.77
2023-02-21T04:21:45.368Z,26.48
2023-02-21T04:24:15.302Z,27.88
2023-02-21T04:26:43.504Z,26.27
2023-02-21T04:29:11.046Z,28.35
2023-02-21T04:31:40.413Z,25.83
2023-02-21T04:34:12.474Z,27.30
2023-02-21T04:36:42.283Z,27.27
2023-02-21T04:39:09.028Z,29.05
2023-02-21T04:41:38.416Z,31.35
2023-02-21T04:44:07.460Z,31.38
2023-02-21T04:46:36.340Z,30.98
2023-02-21T04:49:12.514Z,32.03
2023-02-21T04:51:50.121Z,30.35
2023-02-21T04:54:17.033Z,31.17
2023-02-21T04:56:48.958Z,33.88
2023-02-21T04:59:20.346Z,31.63
2023-02-21T05:01:49.993Z,31.98
2023-02-21T05:04:18.814Z,29.40
2023-02-21T05:06:45.420Z,33.78
2023-02-21T05:09:17.030Z,35.17
2023-02-21T05:11:44.550Z,34.08
2023-02-21T05:14:19.750Z,35.00
2023-02-21T05:16:48.581Z,33.85
2023-02-21T05:19:30.718Z,30.92
2023-02-21T05:22:01.788Z,30.65
2023-02-21T05:24:30.093Z,32.80
2023-02-21T05:26:59.524Z,29.80
2023-02-21T05:29:26.710Z,31.77
2023-02-21T05:31:56.347Z,29.52
2023-02-21T05:34:27.728Z,31.23
2023-02-21T05:36:56.711Z,30.15
2023-02-21T05:39:28.243Z,25.70
2023-02-21T05:41:54.827Z,26.83
2023-02-21T05:44:21.368Z,25.08
2023-02-21T05:46:48.438Z,27.40
2023-02-21T05:49:14.958Z,26.05
2023-02-21T05:51:43.911Z,26.73
2023-02-21T05:54:15.947Z,23.90
2023-02-21T05:56:44.552Z,23.38
2023-02-21T05:59:12.362Z,23.10
2023-02-21T06:01:42.581Z,25.15
2023-02-21T06:04:09.167Z,26.42
2023-02-21T06:06:36.257Z,24.45
2023-02-21T06:09:04.323Z,19.98
2023-02-21T06:11:33.502Z,24.63
2023-02-21T06:14:03.365Z,21.35
2023-02-21T06:16:35.299Z,23.67
2023-02-21T06:19:02.902Z,21.75
2023-02-21T06:21:29.577Z,24.95
2023-02-21T06:23:56.549Z,24.15
2023-02-21T06:26:23.362Z,23.17
2023-02-21T06:28:50.530Z,25.52
2023-02-21T06:31:18.961Z,28.25
2023-02-21T06:33:46.170Z,21.83
2023-02-21T06:36:16.947Z,22.90
2023-02-21T06:38:52.912Z,21.02
2023-02-21T06:41:24.469Z,19.83
2023-02-21T06:43:55.657Z,24.25
2023-02-21T06:46:25.054Z,22.05
2023-02-21T06:48:52.174Z,19.85
2023-02-21T06:51:19.084Z,21.05
2023-02-21T06:53:49.694Z,21.70
2023-02-21T06:56:16.278Z,19.75
2023-02-21T06:58:42.960Z,22.15
2023-02-21T07:01:11.720Z,20.58
2023-02-21T07:03:44.134Z,21.42
2023-02-21T07:08:37.383Z,16.80
2023-02-21T07:11:05.642Z,17.77
2023-02-21T07:13:35.032Z,16.83
2023-02-21T07:16:03.664Z,19.55
2023-02-21T07:18:30.682Z,16.73
2023-02-21T07:21:01.945Z,15.32
2023-02-21T07:23:28.634Z,18.83
2023-02-21T07:25:56.169Z,16.38
2023-02-21T07:28:26.233Z,16.35
2023-02-21T07:30:55.220Z,15.98
2023-02-21T07:33:21.830Z,16.05
2023-02-21T07:35:48.407Z,16.42
2023-02-21T07:38:26.753Z,16.38
2023-02-21T07:41:03.559Z,17.05
2023-02-21T07:43:30.897Z,15.45
2023-02-21T07:45:58.123Z,17.25
2023-02-21T07:48:30.934Z,17.25
2023-02-21T07:51:00.115Z,17.17
2023-02-21T07:53:26.747Z,21.35
2023-02-21T07:55:57.107Z,19.63
2023-02-21T07:58:23.685Z,22.25
2023-02-21T08:00:55.364Z,21.10
2023-02-21T08:03:22.914Z,19.77
2023-02-21T08:05:52.418Z,21.77
2023-02-21T08:08:18.979Z,21.42
2023-02-21T08:10:46.454Z,21.42
2023-02-21T08:13:13.005Z,23.73
2023-02-21T08:15:39.599Z,21.88
2023-02-21T08:18:18.612Z,24.80
2023-02-21T08:20:45.256Z,25.52
2023-02-21T08:23:11.981Z,24.58
2023-02-21T08:25:38.769Z,24.75
2023-02-21T08:28:05.539Z,29.70
2023-02-21T08:30:32.170Z,26.25
2023-02-21T08:32:58.751Z,26.17
2023-02-21T08:35:25.336Z,26.52
2023-02-21T08:38:02.594Z,20.88
2023-02-21T08:40:30.820Z,21.27
2023-02-21T08:42:59.440Z,27.73
2023-02-21T08:45:27.970Z,22.45
2023-02-21T08:47:55.153Z,24.05
2023-02-21T08:50:23.495Z,23.25
2023-02-21T08:52:51.065Z,25.75
2023-02-21T08:55:22.570Z,25.27
2023-02-21T08:57:53.359Z,23.75
2023-02-21T09:00:26.320Z,22.48
2023-02-21T09:02:52.890Z,24.75
2023-02-21T09:05:26.881Z,28.83
2023-02-21T09:08:01.305Z,28.63
2023-02-21T09:10:38.292Z,26.00
2023-02-21T09:13:05.049Z,27.70
2023-02-21T09:15:31.872Z,28.60
2023-02-21T09:17:58.441Z,30.77
2023-02-21T09:20:26.547Z,24.10
2023-02-21T09:22:53.165Z,28.00
2023-02-21T09:25:24.239Z,27.45
2023-02-21T09:27:53.372Z,29.00
2023-02-21T09:30:24.286Z,25.67
2023-02-21T09:32:51.521Z,29.65
2023-02-21T09:35:20.892Z,28.95
2023-02-21T09:37:47.638Z,23.02
2023-02-21T09:40:39.038Z,22.70
2023-02-21T09:43:11.878Z,21.38
2023-02-21T09:45:38.779Z,20.45
2023-02-21T09:48:14.223Z,24.27
2023-02-21T09:50:48.334Z,27.55
2023-02-21T09:53:20.462Z,24.38
2023-02-21T09:55:49.953Z,20.50
2023-02-21T09:58:19.437Z,24.80
2023-02-21T10:00:47.008Z,21.40
2023-02-21T10:03:39.624Z,18.65
2023-02-21T10:06:15.146Z,20.38
2023-02-21T10:08:57.722Z,17.88
2023-02-21T10:14:06.450Z,14.05
2023-02-21T10:16:59.693Z,16.20
2023-02-21T10:19:38.098Z,15.15
2023-02-21T10:22:14.632Z,12.40
2023-02-21T10:24:42.197Z,14.32
2023-02-21T10:27:16.947Z,13.52
2023-02-21T10:30:10.103Z,15.80
2023-02-21T10:32:37.629Z,13.32
2023-02-21T10:35:04.831Z,17.15
2023-02-21T10:37:34.569Z,14.00
2023-02-21T10:40:09.188Z,16.50
2023-02-21T10:42:45.237Z,17.25
2023-02-21T10:45:13.271Z,14.57
2023-02-21T10:48:11.854Z,12.95
2023-02-21T10:50:48.698Z,12.85
2023-02-21T10:53:23.153Z,12.27
2023-02-21T10:56:28.632Z,10.48
2023-02-21T10:59:05.388Z,9.88
2023-02-21T11:01:53.291Z,10.45
2023-02-21T11:04:19.812Z,12.20
2023-02-21T11:06:49.657Z,11.95
2023-02-21T11:09:37.855Z,11.70
2023-02-21T11:12:16.004Z,13.07
2023-02-21T11:14:45.622Z,11.45
2023-02-21T11:17:16.265Z,11.63
2023-02-21T11:19:50.250Z,10.65
2023-02-21T11:22:22.459Z,11.23
2023-02-21T11:25:00.485Z,11.00
2023-02-21T11:27:29.907Z,10.20
2023-02-21T11:29:58.843Z,12.02
2023-02-21T11:32:40.911Z,12.07
2023-02-21T11:35:23.477Z,15.45
2023-02-21T11:38:02.308Z,13.57
2023-02-21T11:40:50.213Z,11.68
2023-02-21T11:43:28.835Z,11.15
2023-02-21T11:46:21.282Z,11.30
2023-02-21T11:48:56.846Z,10.95
2023-02-21T11:51:29.779Z,11.80
2023-02-21T11:53:56.476Z,12.20
2023-02-21T11:56:57.074Z,12.35
2023-02-21T11:59:53.367Z,12.55
2023-02-21T12:02:41.412Z,12.35
2023-02-21T12:05:13.982Z,12.65
2023-02-21T12:07:54.172Z,12.13
2023-02-21T12:10:38.952Z,11.60
2023-02-21T12:13:38.330Z,11.98
2023-02-21T12:16:29.421Z,12.98
2023-02-21T12:19:30.942Z,12.05
2023-02-21T12:22:07.897Z,11.48
2023-02-21T12:24:55.758Z,12.90
2023-02-21T12:27:42.457Z,11.55
2023-02-21T12:30:39.646Z,14.77
2023-02-21T12:33:16.868Z,15.23
2023-02-21T12:36:02.022Z,13.32
2023-02-21T12:38:47.538Z,13.82
2023-02-21T12:41:31.577Z,12.52
2023-02-21T12:44:35.992Z,12.38
2023-02-21T12:47:17.372Z,12.85
2023-02-21T12:50:21.224Z,14.07
2023-02-21T12:53:10.046Z,11.68
2023-02-21T12:55:40.670Z,13.02
2023-02-21T12:58:31.682Z,12.38
2023-02-21T13:01:33.870Z,14.13
2023-02-21T13:04:25.006Z,13.32
2023-02-21T13:07:32.555Z,13.20
2023-02-21T13:10:16.740Z,14.00
2023-02-21T13:13:09.715Z,13.10
2023-02-21T13:15:37.225Z,13.27
2023-02-21T13:18:11.443Z,14.32
2023-02-21T13:21:12.249Z,15.13
2023-02-21T13:23:51.462Z,15.25
2023-02-21T13:26:44.514Z,14.13
2023-02-21T13:29:27.785Z,14.13
2023-02-21T13:32:01.299Z,14.43
2023-02-21T13:34:31.829Z,13.48
2023-02-21T13:37:23.394Z,14.82
2023-02-21T13:39:53.943Z,13.75
2023-02-21T13:42:26.802Z,17.40
2023-02-21T13:45:15.332Z,15.45
2023-02-21T13:47:57.237Z,15.30
2023-02-21T13:50:39.290Z,13.95
2023-02-21T13:53:08.904Z,13.90
2023-02-21T13:55:36.794Z,16.52
2023-02-21T13:58:05.189Z,14.10
2023-02-21T14:00:31.770Z,13.82
2023-02-21T14:03:21.527Z,15.50
2023-02-21T14:05:49.823Z,16.02
2023-02-21T14:08:48.813Z,15.52
2023-02-21T14:11:23.539Z,16.27
2023-02-21T14:13:59.419Z,16.15
2023-02-21T14:16:29.233Z,16.35
2023-02-21T14:18:57.666Z,17.05
2023-02-21T14:21:45.685Z,15.80
2023-02-21T14:24:16.700Z,16.70
2023-02-21T14:26:53.635Z,15.70
2023-02-21T14:29:38.151Z,16.02
2023-02-21T14:32:08.052Z,15.93
2023-02-21T14:34:47.175Z,17.55
2023-02-21T14:37:19.966Z,19.25
2023-02-21T14:39:51.058Z,14.85
2023-02-21T14:42:29.699Z,16.08
2023-02-21T14:45:10.640Z,16.92
2023-02-21T14:48:27.572Z,19.90
2023-02-21T14:50:54.410Z,17.75
2023-02-21T14:53:57.663Z,17.52
2023-02-21T14:56:27.287Z,16.90
2023-02-21T14:58:54.771Z,16.13
2023-02-21T15:01:46.101Z,18.05
2023-02-21T15:04:31.914Z,16.35
2023-02-21T15:07:29.042Z,20.85
2023-02-21T15:10:26.120Z,18.38
2023-02-21T15:12:57.206Z,17.65
2023-02-21T15:15:28.206Z,19.63
2023-02-21T15:18:15.487Z,18.23
2023-02-21T15:20:46.098Z,17.27
2023-02-21T15:23:18.241Z,17.30
2023-02-21T15:26:02.574Z,16.38
2023-02-21T15:28:32.738Z,17.90
2023-02-21T15:31:03.217Z,20.23
2023-02-21T15:33:38.229Z,18.50
2023-02-21T15:36:19.995Z,20.63
2023-02-21T15:39:12.361Z,21.88
2023-02-21T15:41:48.132Z,19.98
2023-02-21T15:44:43.947Z,21.35
2023-02-21T15:47:17.733Z,20.10
2023-02-21T15:50:02.491Z,18.80
2023-02-21T15:52:53.715Z,16.90
2023-02-21T15:55:22.767Z,17.35
2023-02-21T15:58:05.571Z,16.10
2023-02-21T16:00:34.304Z,18.88
2023-02-21T16:03:28.661Z,24.75
2023-02-21T16:06:15.588Z,26.58
2023-02-21T16:09:01.818Z,27.55
2023-02-21T16:12:04.211Z,28.20
2023-02-21T16:14:43.535Z,28.27
2023-02-21T16:17:13.238Z,25.85
2023-02-21T16:19:47.861Z,28.17
2023-02-21T16:22:59.604Z,24.02
2023-02-21T16:25:27.150Z,25.17
2023-02-21T16:27:57.945Z,27.27
2023-02-21T16:30:29.784Z,26.08
2023-02-21T16:33:01.862Z,32.47
2023-02-21T16:35:29.113Z,25.17
2023-02-21T16:37:58.191Z,28.35
2023-02-21T16:40:35.874Z,32.58
2023-02-21T16:43:05.066Z,33.92
2023-02-21T16:45:32.338Z,34.95
2023-02-21T16:48:07.005Z,32.13
2023-02-21T16:50:38.975Z,28.02
2023-02-21T16:53:06.712Z,31.50
2023-02-21T16:55:34.099Z,33.70
2023-02-21T16:58:07.859Z,29.42
2023-02-21T17:00:34.719Z,31.25
2023-02-21T17:03:01.661Z,30.77
2023-02-21T17:05:28.992Z,30.48
2023-02-21T17:07:58.356Z,31.02
2023-02-21T17:10:25.012Z,30.15
2023-02-21T17:12:51.608Z,31.25
2023-02-21T17:15:20.302Z,31.70
2023-02-21T17:17:53.032Z,31.13
2023-02-21T17:20:23.760Z,34.03
2023-02-21T17:22:51.782Z,31.42
2023-02-21T17:25:19.975Z,29.88
2023-02-21T17:27:46.564Z,27.63
2023-02-21T17:30:13.862Z,31.65
2023-02-21T17:32:40.540Z,30.48
2023-02-21T17:35:07.580Z,32.92
2023-02-21T17:37:34.200Z,32.85
2023-02-21T17:40:00.799Z,25.08
2023-02-21T17:42:27.441Z,26.88
2023-02-21T17:44:54.053Z,28.15
2023-02-21T17:47:22.665Z,27.75
2023-02-21T17:49:52.233Z,36.63
2023-02-21T17:52:18.860Z,30.08
2023-02-21T17:54:45.467Z,29.27
2023-02-21T17:57:12.457Z,31.52
2023-02-21T17:59:41.810Z,29.55
2023-02-21T18:02:18.785Z,28.88
2023-02-21T18:04:52.073Z,35.45
2023-02-21T18:07:23.734Z,30.42
2023-02-21T18:09:50.753Z,33.47
2023-02-21T18:12:18.417Z,32.03
2023-02-21T18:14:47.714Z,33.88
2023-02-21T18:17:16.430Z,33.63
2023-02-21T18:19:43.038Z,35.28
2023-02-21T18:22:14.564Z,34.72
2023-02-21T18:24:43.401Z,33.53
2023-02-21T18:27:19.116Z,34.38
2023-02-21T18:29:53.182Z,30.85
2023-02-21T18:32:22.335Z,26.40
2023-02-21T18:34:49.471Z,26.77
2023-02-21T18:37:16.095Z,27.42
2023-02-21T18:39:54.138Z,27.80
2023-02-21T18:42:24.809Z,31.58
2023-02-21T18:44:52.299Z,33.65
2023-02-21T18:47:21.830Z,33.83
2023-02-21T18:49:48.519Z,34.15
2023-02-21T18:52:18.072Z,34.65
2023-02-21T18:54:49.405Z,33.17
2023-02-21T18:57:26.370Z,34.58
2023-02-21T18:59:58.303Z,33.42
2023-02-21T19:02:25.187Z,36.42
2023-02-21T19:04:54.446Z,36.25
2023-02-21T19:07:27.014Z,29.30
2023-02-21T19:09:59.456Z,30.35
2023-02-21T19:12:28.361Z,32.58
2023-02-21T19:14:54.905Z,29.70
2023-02-21T19:17:29.731Z,34.25
2023-02-21T19:20:09.309Z,36.55
2023-02-21T19:22:35.961Z,30.30
2023-02-21T19:25:05.223Z,30.38
2023-02-21T19:27:32.297Z,28.83
2023-02-21T19:30:02.310Z,34.22
2023-02-21T19:32:31.385Z,33.95
2023-02-21T19:34:58.019Z,32.67
2023-02-21T19:37:30.158Z,31.65
2023-02-21T19:40:03.549Z,31.10
2023-02-21T19:42:31.356Z,35.78
2023-02-21T19:45:00.381Z,29.35
2023-02-21T19:47:29.786Z,31.70
2023-02-21T19:49:56.468Z,36.65
2023-02-21T19:52:26.717Z,32.15
2023-02-21T19:54:53.355Z,32.47
2023-02-21T19:57:19.939Z,32.28
2023-02-21T19:59:59.023Z,34.17
2023-02-21T20:02:28.498Z,39.45
2023-02-21T20:04:55.117Z,34.30
2023-02-21T20:07:26.869Z,33.30
2023-02-21T20:09:53.452Z,35.78
2023-02-21T20:12:22.852Z,31.42
2023-02-21T20:14:53.531Z,33.38
2023-02-21T20:17:23.092Z,31.90
2023-02-21T20:19:49.978Z,34.05
2023-02-21T20:22:19.069Z,29.25
2023-02-21T20:24:50.794Z,34.70
2023-02-21T20:27:19.676Z,31.98
2023-02-21T20:29:47.038Z,29.40
2023-02-21T20:32:17.497Z,33.45
2023-02-21T20:34:44.679Z,32.42
2023-02-21T20:37:15.222Z,31.70
2023-02-21T20:39:41.962Z,32.58
2023-02-21T20:42:09.850Z,35.97
2023-02-21T20:44:43.042Z,34.28
2023-02-21T20:47:09.985Z,31.30
2023-02-21T20:49:45.459Z,32.70
2023-02-21T20:52:12.512Z,32.40
2023-02-21T20:54:49.221Z,30.13
2023-02-21T20:57:15.866Z,31.30
2023-02-21T20:59:42.482Z,31.05
2023-02-21T21:02:09.570Z,32.42
2023-02-21T21:04:43.010Z,31.45
2023-02-21T21:07:13.128Z,29.10
2023-02-21T21:09:45.542Z,28.17
2023-02-21T21:12:23.117Z,33.28
2023-02-21T21:14:58.078Z,34.55
2023-02-21T21:17:32.126Z,32.75
2023-02-21T21:20:01.827Z,29.35
2023-02-21T21:22:28.950Z,32.83
2023-02-21T21:25:05.238Z,32.22
2023-02-21T21:27:37.030Z,30.70
2023-02-21T21:30:07.088Z,30.58
2023-02-21T21:32:38.663Z,28.85
2023-02-21T21:35:07.259Z,30.42
2023-02-21T21:37:39.993Z,31.08
2023-02-21T21:40:18.898Z,34.00
2023-02-21T21:42:52.858Z,28.77
2023-02-21T21:45:25.535Z,27.90
2023-02-21T21:47:54.445Z,30.35
2023-02-21T21:50:28.090Z,30.42
2023-02-21T21:53:01.201Z,32.55
2023-02-21T21:55:29.815Z,32.03
2023-02-21T21:58:07.967Z,35.47
2023-02-21T22:00:41.747Z,34.25
2023-02-21T22:03:16.774Z,36.80
2023-02-21T22:05:43.497Z,37.45
2023-02-21T22:08:24.409Z,37.75
2023-02-21T22:10:56.586Z,36.45
2023-02-21T22:13:29.575Z,34.08
2023-02-21T22:15:58.634Z,41.38
2023-02-21T22:18:28.658Z,44.78
2023-02-21T22:21:03.473Z,42.40
2023-02-21T22:23:38.129Z,43.58
2023-02-21T22:26:06.108Z,45.17
2023-02-21T22:28:35.141Z,48.65
2023-02-21T22:31:02.278Z,41.33
2023-02-21T22:33:31.250Z,49.03
2023-02-21T22:36:02.015Z,44.83
2023-02-21T22:38:28.602Z,47.45
2023-02-21T22:41:00.136Z,47.50
2023-02-21T22:43:30.898Z,48.17
2023-02-21T22:46:02.295Z,46.95
2023-02-21T22:48:31.221Z,47.38
2023-02-21T22:51:00.053Z,49.88
2023-02-21T22:53:27.554Z,49.45
2023-02-21T22:55:55.400Z,49.20
2023-02-21T22:58:26.866Z,51.17
2023-02-21T23:00:55.079Z,50.55
2023-02-21T23:03:24.259Z,46.72
2023-02-21T23:05:57.215Z,53.70
2023-02-21T23:08:29.042Z,49.58
2023-02-21T23:11:04.021Z,53.40
2023-02-21T23:13:30.826Z,51.53
2023-02-21T23:15:59.820Z,52.60
2023-02-21T23:18:26.924Z,52.83
2023-02-21T23:20:55.812Z,55.40
2023-02-21T23:23:29.211Z,54.90
2023-02-21T23:26:00.802Z,52.53
2023-02-21T23:28:31.455Z,49.15
2023-02-21T23:30:58.417Z,51.67
2023-02-21T23:33:30.389Z,49.67
2023-02-21T23:35:59.722Z,47.80
2023-02-21T23:38:38.153Z,53.28
2023-02-21T23:41:11.373Z,52.03
2023-02-21T23:43:37.945Z,55.30
2023-02-21T23:46:07.626Z,54.38
2023-02-21T23:48:36.850Z,52.38
2023-02-21T23:51:09.213Z,54.92
2023-02-21T23:56:12.930Z,46.65
2023-02-21T23:58:46.115Z,56.53
